Time;durP1;ratioP1;P1;durP2;ratioP2;P2;SDS_P1;SDS_P2;PMS_P1;PMS_P2;Temp;Humidity;BMP_temperature;BMP_pressure;BME280_temperature;BME280_humidity;BME280_pressure;Samples;Min_cycle;Max_cycle;Signal;HPM_P1;HPM_P2
2022/07/26 00:06:51;;;;;;;17.25;1.90;;;;;;;20.24;82.20;100848.53;20834082;28;20140;-61
2022/07/26 00:17:13;;;;;;;14.35;1.88;;;;;;;20.48;81.45;100848.59;20816746;28;20769;-61
2022/07/26 00:27:37;;;;;;;11.75;1.60;;;;;;;20.23;83.35;100848.72;20810203;28;20045;-61
2022/07/26 00:37:59;;;;;;;7.95;2.03;;;;;;;20.29;83.62;100848.06;20811815;28;20513;-61
2022/07/26 00:48:21;;;;;;;10.57;2.45;;;;;;;20.04;84.97;100851.59;20824342;28;20069;-61
2022/07/26 00:58:43;;;;;;;11.95;1.98;;;;;;;19.93;86.85;100855.31;20841576;28;20088;-60
2022/07/26 01:09:05;;;;;;;13.18;1.98;;;;;;;19.96;87.38;100859.44;20810850;28;20044;-61
2022/07/26 01:19:26;;;;;;;10.73;2.10;;;;;;;20.01;87.02;100847.44;20819235;28;20044;-61
2022/07/26 01:29:50;;;;;;;15.25;2.15;;;;;;;19.90;88.24;100844.22;20829483;28;20053;-61
2022/07/26 01:40:13;;;;;;;10.63;2.17;;;;;;;19.75;88.65;100841.31;20823946;28;20482;-62
2022/07/26 01:50:36;;;;;;;15.02;2.30;;;;;;;19.59;90.25;100835.91;20819601;28;20041;-59
2022/07/26 02:00:57;;;;;;;11.55;1.80;;;;;;;19.65;90.17;100835.31;20822264;28;20824;-61
2022/07/26 02:11:19;;;;;;;17.40;2.40;;;;;;;19.50;91.44;100833.41;20809886;28;20744;-61
2022/07/26 02:21:40;;;;;;;16.65;2.50;;;;;;;19.51;91.45;100838.53;20821875;28;20037;-61
2022/07/26 02:32:02;;;;;;;14.70;2.30;;;;;;;19.28;93.75;100844.47;20820652;28;20046;-61
2022/07/26 02:42:24;;;;;;;12.98;2.42;;;;;;;19.13;94.87;100856.56;20817406;28;20916;-61
2022/07/26 02:52:47;;;;;;;11.25;2.30;;;;;;;19.14;95.50;100860.88;20802790;28;20072;-61
2022/07/26 03:03:12;;;;;;;11.63;2.13;;;;;;;19.17;95.34;100868.50;20814016;28;20284;-60
2022/07/26 03:13:34;;;;;;;10.93;2.53;;;;;;;19.00;97.13;100869.31;20816244;28;20038;-62
2022/07/26 03:23:56;;;;;;;18.95;2.75;;;;;;;18.98;97.25;100876.56;20820197;28;20046;-63
2022/07/26 03:34:18;;;;;;;11.90;2.63;;;;;;;18.87;99.19;100884.72;20821620;28;20488;-60
2022/07/26 03:44:39;;;;;;;16.30;2.63;;;;;;;18.90;98.86;100889.69;20813915;28;20049;-61
2022/07/26 03:56:27;;;;;;;16.25;2.30;;;;;;;18.97;97.75;100906.59;20819830;28;20494;-60
2022/07/26 04:05:43;;;;;;;10.20;2.67;;;;;;;19.09;97.18;100902.75;20807961;28;20507;-61
2022/07/26 04:16:09;;;;;;;12.60;2.55;;;;;;;19.02;98.59;100908.78;20805266;28;20051;-60
2022/07/26 04:26:31;;;;;;;16.17;2.80;;;;;;;18.46;100.00;100924.88;20813253;28;20049;-61
2022/07/26 04:36:53;;;;;;;14.15;2.95;;;;;;;18.37;100.00;100953.94;20810231;28;20056;-60
2022/07/26 04:47:14;;;;;;;8.23;2.13;;;;;;;17.84;100.00;100959.91;20813329;28;20420;-61
2022/07/26 04:57:36;;;;;;;9.07;2.20;;;;;;;17.87;100.00;100971.00;20802918;28;20041;-60
2022/07/26 05:08:00;;;;;;;6.65;1.77;;;;;;;18.04;100.00;100980.00;20809775;28;20406;-61
2022/07/26 05:18:22;;;;;;;7.82;1.83;;;;;;;18.00;100.00;100991.81;20805446;28;20049;-61
2022/07/26 05:28:43;;;;;;;8.13;1.60;;;;;;;17.83;100.00;101000.44;20813277;28;20051;-62
2022/07/26 05:39:05;;;;;;;5.28;1.77;;;;;;;17.99;100.00;101016.53;20806522;28;20047;-62
2022/07/26 05:49:26;;;;;;;6.47;1.55;;;;;;;18.00;100.00;101031.38;20807253;28;20045;-62
2022/07/26 06:00:01;;;;;;;6.88;1.45;;;;;;;17.71;100.00;101038.47;20806685;28;20045;-61
2022/07/26 06:10:22;;;;;;;5.65;1.10;;;;;;;17.74;100.00;101064.56;20816347;28;20391;-61
2022/07/26 06:20:46;;;;;;;5.15;1.20;;;;;;;17.67;100.00;101068.72;20821943;28;20042;-61
2022/07/26 06:31:07;;;;;;;4.50;1.05;;;;;;;17.99;100.00;101074.56;20831690;28;20054;-61
2022/07/26 06:41:29;;;;;;;7.40;1.15;;;;;;;18.03;100.00;101081.25;20822292;28;20672;-61
2022/07/26 06:51:50;;;;;;;4.47;0.65;;;;;;;17.95;100.00;101089.84;20822479;28;20144;-60
2022/07/26 07:02:12;;;;;;;5.72;1.10;;;;;;;18.09;100.00;101101.75;20814117;28;20506;-61
2022/07/26 07:12:34;;;;;;;4.18;0.55;;;;;;;17.25;100.00;101135.75;20817331;28;20054;-62
2022/07/26 07:22:55;;;;;;;5.10;0.73;;;;;;;17.31;100.00;101135.28;20811721;28;20057;-62
2022/07/26 07:33:17;;;;;;;4.55;0.60;;;;;;;17.65;100.00;101149.78;20810680;28;20073;-62
2022/07/26 07:43:43;;;;;;;8.05;1.13;;;;;;;17.81;100.00;101174.66;20826346;28;20049;-62
2022/07/26 07:54:05;;;;;;;6.43;1.02;;;;;;;17.98;100.00;101183.72;20812118;28;20037;-62
2022/07/26 08:04:26;;;;;;;5.10;0.90;;;;;;;18.09;100.00;101186.22;20809494;28;20041;-62
2022/07/26 08:14:48;;;;;;;6.57;0.75;;;;;;;17.91;100.00;101195.75;20814248;28;20040;-62
2022/07/26 08:25:10;;;;;;;4.53;0.70;;;;;;;17.39;100.00;101239.03;20815902;28;20055;-61
2022/07/26 08:35:31;;;;;;;3.97;0.60;;;;;;;17.03;100.00;101251.84;20829850;28;20069;-62
2022/07/26 08:46:00;;;;;;;2.95;0.60;;;;;;;17.37;100.00;101255.97;20815224;28;20041;-62
2022/07/26 08:56:21;;;;;;;6.40;1.40;;;;;;;17.80;94.76;101267.97;20809999;28;20045;-61
2022/07/26 09:06:53;;;;;;;8.20;1.02;;;;;;;18.04;88.92;101278.16;20819677;28;20482;-61
2022/07/26 09:17:18;;;;;;;6.93;0.60;;;;;;;18.55;86.63;101279.66;20810912;28;20042;-61
2022/07/26 09:27:40;;;;;;;3.25;0.70;;;;;;;18.90;80.00;101286.03;20811719;28;20402;-61
2022/07/26 09:38:11;;;;;;;3.13;0.57;;;;;;;19.48;79.05;101298.22;20819778;28;20132;-61
2022/07/26 09:48:35;;;;;;;;;;;;;;;18.48;77.10;101326.06;20826673;28;20045;-60
2022/07/26 09:59:19;;;;;;;5.72;0.80;;;;;;;18.31;79.60;101339.09;20821321;28;19944;-61
2022/07/26 10:09:51;;;;;;;8.18;1.00;;;;;;;19.29;73.63;101339.69;20825051;28;20046;-61
2022/07/26 10:20:42;;;;;;;5.82;1.00;;;;;;;19.02;70.89;101358.06;20837246;28;20378;-61
2022/07/26 10:31:19;;;;;;;4.78;0.90;;;;;;;19.37;76.42;101363.66;20822383;28;20048;-60
2022/07/26 10:41:44;;;;;;;4.80;0.80;;;;;;;18.83;72.13;101374.75;20819841;28;20051;-60
2022/07/26 10:52:13;;;;;;;5.53;0.80;;;;;;;19.17;71.04;101378.69;20824233;28;20053;-60
2022/07/26 11:02:35;;;;;;;5.65;0.75;;;;;;;19.45;69.17;101383.94;20817569;28;20048;-60
2022/07/26 11:13:05;;;;;;;6.43;1.15;;;;;;;18.99;74.28;101409.41;20817408;28;20063;-60
2022/07/26 11:23:32;;;;;;;12.97;1.50;;;;;;;19.29;74.67;101419.88;20829409;28;20053;-60
2022/07/26 11:33:55;;;;;;;13.40;1.77;;;;;;;19.04;71.22;101425.69;20816630;28;20042;-61
2022/07/26 11:44:21;;;;;;;9.13;1.60;;;;;;;18.71;73.62;101444.56;20817938;28;20394;-61
2022/07/26 11:54:49;;;;;;;11.60;1.95;;;;;;;19.12;72.73;101444.34;20816202;28;20429;-61
2022/07/26 12:05:18;;;;;;;10.48;1.88;;;;;;;19.64;65.23;101451.88;20815237;28;20037;-60
2022/07/26 12:15:49;;;;;;;9.98;1.73;;;;;;;19.62;67.62;101443.25;20803961;28;20069;-60
2022/07/26 12:26:21;;;;;;;7.53;1.50;;;;;;;19.83;66.09;101449.19;20812795;28;20045;-61
2022/07/26 12:36:42;;;;;;;9.30;1.33;;;;;;;20.26;59.47;101449.50;20814807;28;20406;-61
2022/07/26 12:47:04;;;;;;;6.88;1.48;;;;;;;20.15;60.58;101452.31;20813483;28;20049;-61
2022/07/26 12:57:26;;;;;;;6.93;1.23;;;;;;;19.95;59.75;101458.63;20798019;28;20045;-62
2022/07/26 13:07:50;;;;;;;6.53;1.10;;;;;;;20.17;61.99;101440.59;20811923;28;20401;-61
2022/07/26 13:18:12;;;;;;;5.85;1.17;;;;;;;19.98;58.92;101445.13;20826271;28;20052;-62
2022/07/26 13:28:34;;;;;;;3.50;0.85;;;;;;;20.05;57.16;101454.19;20826545;28;20677;-62
2022/07/26 13:38:55;;;;;;;7.20;1.58;;;;;;;20.54;56.06;101452.84;20820795;28;20128;-63
2022/07/26 13:49:17;;;;;;;6.78;1.20;;;;;;;20.65;56.66;101468.56;20828460;28;21675;-62
2022/07/26 13:59:38;;;;;;;5.70;0.95;;;;;;;21.00;55.12;101473.16;20807399;28;20695;-62
2022/07/26 14:10:00;;;;;;;5.15;1.05;;;;;;;19.96;57.57;101490.25;20809670;28;20048;-61
2022/07/26 14:20:22;;;;;;;4.55;0.70;;;;;;;20.02;59.69;101483.59;20804813;28;20050;-61
2022/07/26 14:30:43;;;;;;;2.28;0.75;;;;;;;20.27;57.34;101494.38;20795390;28;20124;-59
2022/07/26 14:41:05;;;;;;;4.72;0.75;;;;;;;20.07;60.51;101502.53;20822485;28;20103;-61
2022/07/26 14:51:27;;;;;;;2.28;0.60;;;;;;;20.19;55.95;101506.69;20801573;28;20701;-61
2022/07/26 15:01:48;;;;;;;3.03;0.63;;;;;;;20.43;54.42;101510.50;20801208;28;20045;-62
2022/07/26 15:12:10;;;;;;;2.20;0.47;;;;;;;20.02;55.39;101508.22;20808046;28;20045;-59
2022/07/26 15:22:32;;;;;;;8.98;0.90;;;;;;;20.55;55.72;101515.47;20797250;28;20042;-63
2022/07/26 15:32:55;;;;;;;4.85;0.80;;;;;;;20.19;57.84;101506.69;20800405;28;20056;-61
2022/07/26 15:43:21;;;;;;;3.13;0.93;;;;;;;19.86;58.20;101517.72;20797899;28;20037;-61
2022/07/26 15:54:03;;;;;;;4.70;0.90;;;;;;;20.07;59.66;101529.00;20784711;28;20441;-61
2022/07/26 16:04:25;;;;;;;8.35;1.05;;;;;;;20.25;59.28;101519.31;20802056;28;20049;-62
2022/07/26 16:14:46;;;;;;;4.55;0.98;;;;;;;19.61;61.02;101527.06;20802819;28;20046;-60
2022/07/26 16:25:11;;;;;;;4.20;1.00;;;;;;;19.80;58.39;101526.19;20801330;28;20050;-60
2022/07/26 16:35:34;;;;;;;4.82;1.10;;;;;;;20.35;58.57;101536.06;20803487;28;20053;-62
2022/07/26 16:45:55;;;;;;;4.97;0.73;;;;;;;20.04;58.65;101531.94;20800699;28;20056;-61
2022/07/26 16:56:17;;;;;;;6.47;1.35;;;;;;;19.66;60.00;101534.56;20803556;28;20046;-61
2022/07/26 17:06:40;;;;;;;6.22;1.00;;;;;;;20.67;55.03;101529.38;20804787;28;20056;-62
2022/07/26 17:17:09;;;;;;;4.95;0.88;;;;;;;20.47;55.52;101530.41;20808281;28;20064;-62
2022/07/26 17:27:30;;;;;;;5.88;0.80;;;;;;;19.94;56.77;101528.44;20819850;28;20437;-63
2022/07/26 17:37:54;;;;;;;3.92;0.80;;;;;;;19.95;53.66;101540.66;20806368;28;20045;-63
2022/07/26 17:48:16;;;;;;;6.97;0.65;;;;;;;19.24;55.30;101533.13;20808019;28;20049;-62
2022/07/26 17:58:39;;;;;;;3.13;0.63;;;;;;;19.11;56.99;101539.63;20817950;28;20041;-61
2022/07/26 18:09:00;;;;;;;3.25;0.60;;;;;;;18.90;57.37;101555.59;20818422;28;20056;-59
2022/07/26 18:19:23;;;;;;;3.70;0.70;;;;;;;18.69;58.87;101559.25;20815486;28;20059;-62
2022/07/26 18:29:44;;;;;;;3.03;0.50;;;;;;;18.67;61.64;101569.94;20815659;28;20049;-61
2022/07/26 18:40:07;;;;;;;3.90;0.68;;;;;;;18.42;61.85;101553.69;20823391;28;20380;-61
2022/07/26 18:50:29;;;;;;;3.80;0.90;;;;;;;18.38;63.05;101553.09;20821800;28;20121;-61
2022/07/26 19:00:52;;;;;;;2.10;0.50;;;;;;;18.43;64.08;101561.50;20822018;28;20162;-61
2022/07/26 19:11:14;;;;;;;1.08;0.65;;;;;;;18.33;65.34;101558.94;20808357;28;20395;-63
2022/07/26 19:21:35;;;;;;;2.80;0.68;;;;;;;18.11;66.12;101574.84;20819846;28;20064;-61
2022/07/26 19:31:57;;;;;;;6.07;0.60;;;;;;;18.12;66.47;101587.09;20820044;28;20448;-60
2022/07/26 19:42:19;;;;;;;5.35;1.10;;;;;;;17.90;69.50;101603.88;20818119;28;20492;-62
2022/07/26 19:52:40;;;;;;;1.83;0.68;;;;;;;17.51;72.11;101601.00;20788492;28;20045;-61
2022/07/26 20:03:03;;;;;;;3.22;0.70;;;;;;;17.48;74.48;101612.66;20810051;28;20059;-62
2022/07/26 20:13:24;;;;;;;5.10;0.93;;;;;;;17.26;75.27;101622.34;20816604;28;20047;-61
2022/07/26 20:23:46;;;;;;;2.97;0.50;;;;;;;17.14;76.25;101618.06;20811977;28;20049;-61
2022/07/26 20:34:08;;;;;;;4.35;0.73;;;;;;;17.08;76.43;101618.53;20833884;28;20053;-61
2022/07/26 20:44:29;;;;;;;5.30;0.90;;;;;;;16.95;77.46;101617.81;20812612;28;20071;-62
2022/07/26 20:54:52;;;;;;;3.17;0.70;;;;;;;16.73;78.43;101628.38;20814572;28;20053;-61
2022/07/26 21:05:13;;;;;;;5.82;0.50;;;;;;;16.76;77.41;101646.53;20812379;28;20049;-60
2022/07/26 21:15:35;;;;;;;2.53;0.80;;;;;;;16.78;78.00;101636.72;20810186;28;20056;-60
2022/07/26 21:25:56;;;;;;;6.32;0.90;;;;;;;16.71;78.06;101642.59;20822339;28;20050;-60
2022/07/26 21:36:21;;;;;;;4.10;0.70;;;;;;;16.53;78.35;101636.94;20822865;28;20541;-60
2022/07/26 21:46:43;;;;;;;5.82;0.65;;;;;;;16.43;79.38;101641.25;20816668;28;20048;-61
2022/07/26 21:57:04;;;;;;;1.83;0.70;;;;;;;16.43;78.31;101654.41;20825271;28;20041;-60
2022/07/26 22:07:26;;;;;;;2.95;0.70;;;;;;;15.98;80.86;101648.22;20829240;28;20112;-60
2022/07/26 22:17:47;;;;;;;3.67;0.50;;;;;;;16.07;80.40;101650.16;20832804;28;20038;-60
2022/07/26 22:28:11;;;;;;;4.60;1.25;;;;;;;15.90;81.17;101645.31;20826442;28;20119;-60
2022/07/26 22:38:38;;;;;;;2.97;0.60;;;;;;;15.87;80.91;101656.03;20834679;28;20053;-59
2022/07/26 22:49:00;;;;;;;3.22;0.70;;;;;;;15.79;81.19;101642.63;20815190;28;20514;-60
2022/07/26 22:59:24;;;;;;;3.25;0.82;;;;;;;16.00;80.61;101641.88;20811304;28;20057;-60
2022/07/26 23:09:45;;;;;;;5.35;0.85;;;;;;;15.86;80.86;101649.13;20817421;28;20088;-60
2022/07/26 23:20:10;;;;;;;5.18;0.77;;;;;;;15.60;81.90;101639.66;20820053;28;20506;-60
2022/07/26 23:30:31;;;;;;;3.42;0.90;;;;;;;15.87;80.91;101641.13;20815994;28;20124;-60
2022/07/26 23:40:53;;;;;;;4.95;0.73;;;;;;;15.68;81.70;101645.19;20815679;28;20077;-59
2022/07/26 23:51:15;;;;;;;;;;;;;;;15.64;83.54;101649.84;20824434;28;20054;-61
